sensor_id;sensor_type;location;lat;lon;timestamp;pressure;altitude;pressure_sealevel;temperature;humidity
54172;BME280;40076;52.354;4.970;2023-03-08T00:02:17;100055.09;;;2.26;100.00
54172;BME280;40076;52.354;4.970;2023-03-08T00:04:42;100057.78;;;2.21;100.00
54172;BME280;40076;52.354;4.970;2023-03-08T00:07:07;100054.91;;;2.18;100.00
54172;BME280;40076;52.354;4.970;2023-03-08T00:09:33;100057.06;;;2.16;100.00
54172;BME280;40076;52.354;4.970;2023-03-08T00:11:58;100047.78;;;2.13;100.00
54172;BME280;40076;52.354;4.970;2023-03-08T00:14:24;100038.19;;;2.12;100.00
54172;BME280;40076;52.354;4.970;2023-03-08T00:16:49;100045.66;;;2.10;100.00
54172;BME280;40076;52.354;4.970;2023-03-08T00:19:14;100041.41;;;2.09;100.00
54172;BME280;40076;52.354;4.970;2023-03-08T00:21:40;100049.94;;;2.06;100.00
54172;BME280;40076;52.354;4.970;2023-03-08T00:24:05;100047.59;;;2.05;100.00
54172;BME280;40076;52.354;4.970;2023-03-08T00:26:31;100048.41;;;2.00;100.00
54172;BME280;40076;52.354;4.970;2023-03-08T00:28:56;100063.09;;;1.98;100.00
54172;BME280;40076;52.354;4.970;2023-03-08T00:31:21;100058.31;;;1.94;100.00
54172;BME280;40076;52.354;4.970;2023-03-08T00:33:47;100049.81;;;1.92;100.00
54172;BME280;40076;52.354;4.970;2023-03-08T00:36:17;100042.41;;;1.89;100.00
54172;BME280;40076;52.354;4.970;2023-03-08T00:38:44;100041.88;;;1.87;100.00
54172;BME280;40076;52.354;4.970;2023-03-08T00:41:10;100055.47;;;1.86;100.00
54172;BME280;40076;52.354;4.970;2023-03-08T00:43:36;100053.06;;;1.84;100.00
54172;BME280;40076;52.354;4.970;2023-03-08T00:46:01;100053.88;;;1.85;100.00
54172;BME280;40076;52.354;4.970;2023-03-08T00:48:27;100056.81;;;1.83;100.00
54172;BME280;40076;52.354;4.970;2023-03-08T00:50:52;100053.06;;;1.84;100.00
54172;BME280;40076;52.354;4.970;2023-03-08T00:53:18;100048.06;;;1.83;100.00
54172;BME280;40076;52.354;4.970;2023-03-08T00:55:55;100047.53;;;1.81;100.00
54172;BME280;40076;52.354;4.970;2023-03-08T00:58:22;100040.09;;;1.78;100.00
54172;BME280;40076;52.354;4.970;2023-03-08T01:00:47;100041.94;;;1.77;100.00
54172;BME280;40076;52.354;4.970;2023-03-08T01:03:13;100032.38;;;1.76;100.00
54172;BME280;40076;52.354;4.970;2023-03-08T01:05:43;100029.47;;;1.73;100.00
54172;BME280;40076;52.354;4.970;2023-03-08T01:08:10;100031.34;;;1.72;100.00
54172;BME280;40076;52.354;4.970;2023-03-08T01:10:35;100023.34;;;1.72;100.00
54172;BME280;40076;52.354;4.970;2023-03-08T01:13:01;100026.03;;;1.72;100.00
54172;BME280;40076;52.354;4.970;2023-03-08T01:15:27;100024.16;;;1.73;100.00
54172;BME280;40076;52.354;4.970;2023-03-08T01:17:52;100018.84;;;1.73;100.00
54172;BME280;40076;52.354;4.970;2023-03-08T01:20:17;100018.84;;;1.73;100.00
54172;BME280;40076;52.354;4.970;2023-03-08T01:22:43;100022.00;;;1.75;100.00
54172;BME280;40076;52.354;4.970;2023-03-08T01:25:08;100025.16;;;1.77;100.00
54172;BME280;40076;52.354;4.970;2023-03-08T01:27:33;100017.19;;;1.77;100.00
54172;BME280;40076;52.354;4.970;2023-03-08T01:29:59;100019.56;;;1.78;100.00
54172;BME280;40076;52.354;4.970;2023-03-08T01:32:25;100021.97;;;1.80;100.00
54172;BME280;40076;52.354;4.970;2023-03-08T01:34:50;100010.78;;;1.78;100.00
54172;BME280;40076;52.354;4.970;2023-03-08T01:37:16;100010.78;;;1.78;100.00
54172;BME280;40076;52.354;4.970;2023-03-08T01:39:41;100008.41;;;1.76;100.00
54172;BME280;40076;52.354;4.970;2023-03-08T01:42:07;100008.41;;;1.76;100.00
54172;BME280;40076;52.354;4.970;2023-03-08T01:44:49;100002.56;;;1.74;100.00
54172;BME280;40076;52.354;4.970;2023-03-08T01:47:26;99999.91;;;1.74;100.00
54172;BME280;40076;52.354;4.970;2023-03-08T01:50:03;100004.94;;;1.76;100.00
54172;BME280;40076;52.354;4.970;2023-03-08T01:52:51;99998.53;;;1.77;100.00
54172;BME280;40076;52.354;4.970;2023-03-08T01:55:16;99998.00;;;1.80;100.00
54172;BME280;40076;52.354;4.970;2023-03-08T01:57:48;99993.19;;;1.82;100.00
54172;BME280;40076;52.354;4.970;2023-03-08T02:00:17;99990.72;;;1.85;100.00
54172;BME280;40076;52.354;4.970;2023-03-08T02:02:49;99988.06;;;1.85;100.00
54172;BME280;40076;52.354;4.970;2023-03-08T02:05:15;99977.13;;;1.87;100.00
54172;BME280;40076;52.354;4.970;2023-03-08T02:07:41;99968.06;;;1.88;100.00
54172;BME280;40076;52.354;4.970;2023-03-08T02:10:08;99965.94;;;1.90;100.00
54172;BME280;40076;52.354;4.970;2023-03-08T02:12:34;99969.41;;;1.90;100.00
54172;BME280;40076;52.354;4.970;2023-03-08T02:15:01;99958.75;;;1.90;100.00
54172;BME280;40076;52.354;4.970;2023-03-08T02:17:27;99961.91;;;1.92;100.00
54172;BME280;40076;52.354;4.970;2023-03-08T02:20:01;99946.69;;;1.93;100.00
54172;BME280;40076;52.354;4.970;2023-03-08T02:22:30;99946.44;;;1.94;100.00
54172;BME280;40076;52.354;4.970;2023-03-08T02:24:56;99951.75;;;1.94;100.00
54172;BME280;40076;52.354;4.970;2023-03-08T02:27:23;99955.50;;;1.93;100.00
54172;BME280;40076;52.354;4.970;2023-03-08T02:29:50;99947.50;;;1.93;100.00
54172;BME280;40076;52.354;4.970;2023-03-08T02:32:16;99946.69;;;1.93;100.00
54172;BME280;40076;52.354;4.970;2023-03-08T02:34:42;99955.78;;;1.92;100.00
54172;BME280;40076;52.354;4.970;2023-03-08T02:37:07;99950.44;;;1.92;100.00
54172;BME280;40076;52.354;4.970;2023-03-08T02:39:32;99940.84;;;1.91;100.00
54172;BME280;40076;52.354;4.970;2023-03-08T02:41:58;99940.09;;;1.90;100.00
54172;BME280;40076;52.354;4.970;2023-03-08T02:44:23;99939.28;;;1.90;100.00
54172;BME280;40076;52.354;4.970;2023-03-08T02:46:49;99933.97;;;1.90;100.00
54172;BME280;40076;52.354;4.970;2023-03-08T02:49:18;99935.53;;;1.91;100.00
54172;BME280;40076;52.354;4.970;2023-03-08T02:51:43;99930.19;;;1.91;100.00
54172;BME280;40076;52.354;4.970;2023-03-08T02:54:09;99926.78;;;1.90;100.00
54172;BME280;40076;52.354;4.970;2023-03-08T02:56:34;99922.22;;;1.91;100.00
54172;BME280;40076;52.354;4.970;2023-03-08T02:59:02;99925.97;;;1.90;100.00
54172;BME280;40076;52.354;4.970;2023-03-08T03:01:27;99928.34;;;1.91;100.00
54172;BME280;40076;52.354;4.970;2023-03-08T03:03:53;99920.34;;;1.91;100.00
54172;BME280;40076;52.354;4.970;2023-03-08T03:06:20;99926.78;;;1.90;100.00
54172;BME280;40076;52.354;4.970;2023-03-08T03:08:46;99925.19;;;1.89;100.00
54172;BME280;40076;52.354;4.970;2023-03-08T03:11:17;99927.31;;;1.87;100.00
54172;BME280;40076;52.354;4.970;2023-03-08T03:13:43;99914.28;;;1.86;100.00
54172;BME280;40076;52.354;4.970;2023-03-08T03:16:11;99912.69;;;1.85;100.00
54172;BME280;40076;52.354;4.970;2023-03-08T03:18:37;99908.16;;;1.85;100.00
54172;BME280;40076;52.354;4.970;2023-03-08T03:21:05;99898.31;;;1.86;100.00
54172;BME280;40076;52.354;4.970;2023-03-08T03:23:30;99903.34;;;1.87;100.00
54172;BME280;40076;52.354;4.970;2023-03-08T03:25:56;99902.56;;;1.87;100.00
54172;BME280;40076;52.354;4.970;2023-03-08T03:28:21;99904.41;;;1.86;100.00
54172;BME280;40076;52.354;4.970;2023-03-08T03:30:47;99897.22;;;1.87;100.00
54172;BME280;40076;52.354;4.970;2023-03-08T03:33:12;99897.50;;;1.85;100.00
54172;BME280;40076;52.354;4.970;2023-03-08T03:35:38;99887.91;;;1.84;100.00
54172;BME280;40076;52.354;4.970;2023-03-08T03:38:06;99895.13;;;1.84;100.00
54172;BME280;40076;52.354;4.970;2023-03-08T03:40:32;99891.66;;;1.83;100.00
54172;BME280;40076;52.354;4.970;2023-03-08T03:42:57;99893.56;;;1.83;100.00
54172;BME280;40076;52.354;4.970;2023-03-08T03:45:22;99887.44;;;1.82;100.00
54172;BME280;40076;52.354;4.970;2023-03-08T03:47:47;99875.97;;;1.82;100.00
54172;BME280;40076;52.354;4.970;2023-03-08T03:50:13;99862.66;;;1.82;100.00
54172;BME280;40076;52.354;4.970;2023-03-08T03:52:38;99860.56;;;1.79;100.00
54172;BME280;40076;52.354;4.970;2023-03-08T03:55:04;99858.44;;;1.76;100.00
54172;BME280;40076;52.354;4.970;2023-03-08T03:57:29;99852.34;;;1.75;100.00
54172;BME280;40076;52.354;4.970;2023-03-08T03:59:55;99847.31;;;1.74;100.00
54172;BME280;40076;52.354;4.970;2023-03-08T04:02:20;99857.16;;;1.73;100.00
54172;BME280;40076;52.354;4.970;2023-03-08T04:04:48;99851.84;;;1.73;100.00
54172;BME280;40076;52.354;4.970;2023-03-08T04:07:13;99848.09;;;1.74;100.00
54172;BME280;40076;52.354;4.970;2023-03-08T04:09:39;99846.50;;;1.73;100.00
54172;BME280;40076;52.354;4.970;2023-03-08T04:12:04;99845.72;;;1.73;100.00
54172;BME280;40076;52.354;4.970;2023-03-08T04:14:30;99851.31;;;1.71;100.00
54172;BME280;40076;52.354;4.970;2023-03-08T04:16:55;99843.63;;;1.70;100.00
54172;BME280;40076;52.354;4.970;2023-03-08T04:19:20;99842.81;;;1.69;100.00
54172;BME280;40076;52.354;4.970;2023-03-08T04:21:46;99835.13;;;1.68;100.00
54172;BME280;40076;52.354;4.970;2023-03-08T04:24:11;99840.47;;;1.68;100.00
54172;BME280;40076;52.354;4.970;2023-03-08T04:26:36;99842.59;;;1.66;100.00
54172;BME280;40076;52.354;4.970;2023-03-08T04:29:02;99835.97;;;1.63;100.00
54172;BME280;40076;52.354;4.970;2023-03-08T04:31:32;99834.66;;;1.61;100.00
54172;BME280;40076;52.354;4.970;2023-03-08T04:33:59;99832.31;;;1.59;100.00
54172;BME280;40076;52.354;4.970;2023-03-08T04:36:25;99829.13;;;1.57;100.00
54172;BME280;40076;52.354;4.970;2023-03-08T04:38:50;99817.69;;;1.57;100.00
54172;BME280;40076;52.354;4.970;2023-03-08T04:41:16;99824.06;;;1.55;100.00
54172;BME280;40076;52.354;4.970;2023-03-08T04:43:46;99823.28;;;1.55;100.00
54172;BME280;40076;52.354;4.970;2023-03-08T04:46:13;99812.63;;;1.55;100.00
54172;BME280;40076;52.354;4.970;2023-03-08T04:48:38;99808.69;;;1.52;100.00
54172;BME280;40076;52.354;4.970;2023-03-08T04:51:05;99802.03;;;1.50;100.00
54172;BME280;40076;52.354;4.970;2023-03-08T04:53:31;99800.47;;;1.49;100.00
54172;BME280;40076;52.354;4.970;2023-03-08T04:55:57;99792.75;;;1.47;100.00
54172;BME280;40076;52.354;4.970;2023-03-08T04:58:28;99784.25;;;1.45;100.00
54172;BME280;40076;52.354;4.970;2023-03-08T05:00:54;99780.31;;;1.43;100.00
54172;BME280;40076;52.354;4.970;2023-03-08T05:03:20;99779.50;;;1.42;100.00
54172;BME280;40076;52.354;4.970;2023-03-08T05:05:48;99777.91;;;1.41;100.00
54172;BME280;40076;52.354;4.970;2023-03-08T05:08:14;99766.47;;;1.41;100.00
54172;BME280;40076;52.354;4.970;2023-03-08T05:10:40;99763.81;;;1.41;100.00
54172;BME280;40076;52.354;4.970;2023-03-08T05:13:10;99772.59;;;1.41;100.00
54172;BME280;40076;52.354;4.970;2023-03-08T05:15:35;99765.69;;;1.40;100.00
54172;BME280;40076;52.354;4.970;2023-03-08T05:18:01;99759.84;;;1.38;100.00
54172;BME280;40076;52.354;4.970;2023-03-08T05:20:26;99755.63;;;1.37;100.00
54172;BME280;40076;52.354;4.970;2023-03-08T05:22:51;99749.78;;;1.35;100.00
54172;BME280;40076;52.354;4.970;2023-03-08T05:25:16;99735.69;;;1.35;100.00
54172;BME280;40076;52.354;4.970;2023-03-08T05:27:42;99734.31;;;1.37;100.00
54172;BME280;40076;52.354;4.970;2023-03-08T05:30:07;99729.00;;;1.37;100.00
54172;BME280;40076;52.354;4.970;2023-03-08T05:32:33;99725.25;;;1.38;100.00
54172;BME280;40076;52.354;4.970;2023-03-08T05:34:58;99721.78;;;1.38;100.00
54172;BME280;40076;52.354;4.970;2023-03-08T05:37:24;99721.50;;;1.39;100.00
54172;BME280;40076;52.354;4.970;2023-03-08T05:39:50;99719.34;;;1.41;100.00
54172;BME280;40076;52.354;4.970;2023-03-08T05:42:15;99712.16;;;1.42;100.00
54172;BME280;40076;52.354;4.970;2023-03-08T05:44:41;99707.34;;;1.44;100.00
54172;BME280;40076;52.354;4.970;2023-03-08T05:47:06;99708.94;;;1.45;100.00
54172;BME280;40076;52.354;4.970;2023-03-08T05:49:31;99700.16;;;1.44;100.00
54172;BME280;40076;52.354;4.970;2023-03-08T05:51:56;99694.53;;;1.46;100.00
54172;BME280;40076;52.354;4.970;2023-03-08T05:54:22;99703.63;;;1.45;100.00
54172;BME280;40076;52.354;4.970;2023-03-08T05:56:47;99697.19;;;1.46;100.00
54172;BME280;40076;52.354;4.970;2023-03-08T05:59:13;99698.00;;;1.46;100.00
54172;BME280;40076;52.354;4.970;2023-03-08T06:01:38;99691.06;;;1.45;100.00
54172;BME280;40076;52.354;4.970;2023-03-08T06:04:03;99686.53;;;1.46;100.00
54172;BME280;40076;52.354;4.970;2023-03-08T06:06:29;99688.72;;;1.44;100.00
54172;BME280;40076;52.354;4.970;2023-03-08T06:08:54;99688.22;;;1.42;100.00
54172;BME280;40076;52.354;4.970;2023-03-08T06:11:22;99676.78;;;1.41;100.00
54172;BME280;40076;52.354;4.970;2023-03-08T06:13:48;99682.09;;;1.41;100.00
54172;BME280;40076;52.354;4.970;2023-03-08T06:16:14;99675.19;;;1.40;100.00
54172;BME280;40076;52.354;4.970;2023-03-08T06:18:41;99683.44;;;1.39;100.00
54172;BME280;40076;52.354;4.970;2023-03-08T06:21:17;99683.75;;;1.37;100.00
54172;BME280;40076;52.354;4.970;2023-03-08T06:23:44;99679.50;;;1.36;100.00
54172;BME280;40076;52.354;4.970;2023-03-08T06:26:10;99675.53;;;1.34;100.00
54172;BME280;40076;52.354;4.970;2023-03-08T06:28:36;99675.53;;;1.34;100.00
54172;BME280;40076;52.354;4.970;2023-03-08T06:31:02;99684.88;;;1.31;100.00
54172;BME280;40076;52.354;4.970;2023-03-08T06:33:29;99676.09;;;1.31;100.00
54172;BME280;40076;52.354;4.970;2023-03-08T06:35:57;99674.53;;;1.30;100.00
54172;BME280;40076;52.354;4.970;2023-03-08T06:38:23;99679.88;;;1.30;100.00
54172;BME280;40076;52.354;4.970;2023-03-08T06:40:48;99681.41;;;1.31;100.00
54172;BME280;40076;52.354;4.970;2023-03-08T06:43:14;99680.34;;;1.32;100.00
54172;BME280;40076;52.354;4.970;2023-03-08T06:45:39;99680.06;;;1.33;100.00
54172;BME280;40076;52.354;4.970;2023-03-08T06:48:05;99680.84;;;1.34;100.00
54172;BME280;40076;52.354;4.970;2023-03-08T06:50:31;99678.75;;;1.31;100.00
54172;BME280;40076;52.354;4.970;2023-03-08T06:52:57;99681.41;;;1.31;100.00
54172;BME280;40076;52.354;4.970;2023-03-08T06:55:22;99674.22;;;1.31;100.00
54172;BME280;40076;52.354;4.970;2023-03-08T06:57:47;99676.88;;;1.31;100.00
54172;BME280;40076;52.354;4.970;2023-03-08T07:00:13;99670.22;;;1.34;100.00
54172;BME280;40076;52.354;4.970;2023-03-08T07:02:39;99673.38;;;1.36;100.00
54172;BME280;40076;52.354;4.970;2023-03-08T07:05:05;99675.47;;;1.39;100.00
54172;BME280;40076;52.354;4.970;2023-03-08T07:07:30;99673.31;;;1.41;100.00
54172;BME280;40076;52.354;4.970;2023-03-08T07:09:56;99667.72;;;1.42;100.00
54172;BME280;40076;52.354;4.970;2023-03-08T07:12:22;99669.03;;;1.45;100.00
54172;BME280;40076;52.354;4.970;2023-03-08T07:14:48;99663.38;;;1.46;100.00
54172;BME280;40076;52.354;4.970;2023-03-08T07:17:13;99658.56;;;1.48;100.00
54172;BME280;40076;52.354;4.970;2023-03-08T07:19:38;99664.41;;;1.50;100.00
54172;BME280;40076;52.354;4.970;2023-03-08T07:22:04;99656.16;;;1.52;100.00
54172;BME280;40076;52.354;4.970;2023-03-08T07:24:29;99663.53;;;1.55;100.00
54172;BME280;40076;52.354;4.970;2023-03-08T07:26:55;99659.81;;;1.56;100.00
54172;BME280;40076;52.354;4.970;2023-03-08T07:29:20;99647.50;;;1.60;100.00
54172;BME280;40076;52.354;4.970;2023-03-08T07:31:45;99648.28;;;1.61;100.00
54172;BME280;40076;52.354;4.970;2023-03-08T07:34:11;99648.78;;;1.63;100.00
54172;BME280;40076;52.354;4.970;2023-03-08T07:36:36;99652.75;;;1.65;100.00
54172;BME280;40076;52.354;4.970;2023-03-08T07:39:04;99642.91;;;1.66;100.00
54172;BME280;40076;52.354;4.970;2023-03-08T07:41:29;99647.16;;;1.67;100.00
54172;BME280;40076;52.354;4.970;2023-03-08T07:43:57;99651.09;;;1.69;100.00
54172;BME280;40076;52.354;4.970;2023-03-08T07:46:22;99645.19;;;1.72;100.00
54172;BME280;40076;52.354;4.970;2023-03-08T07:48:47;99643.03;;;1.74;100.00
54172;BME280;40076;52.354;4.970;2023-03-08T07:51:12;99644.03;;;1.78;100.00
54172;BME280;40076;52.354;4.970;2023-03-08T07:53:38;99634.97;;;1.79;100.00
54172;BME280;40076;52.354;4.970;2023-03-08T07:56:03;99638.13;;;1.81;100.00
54172;BME280;40076;52.354;4.970;2023-03-08T07:58:29;99627.19;;;1.83;100.00
54172;BME280;40076;52.354;4.970;2023-03-08T08:00:55;99628.75;;;1.84;100.00
54172;BME280;40076;52.354;4.970;2023-03-08T08:03:20;99630.34;;;1.85;100.00
54172;BME280;40076;52.354;4.970;2023-03-08T08:05:46;99630.84;;;1.87;100.00
54172;BME280;40076;52.354;4.970;2023-03-08T08:08:11;99626.03;;;1.89;100.00
54172;BME280;40076;52.354;4.970;2023-03-08T08:10:39;99620.91;;;1.92;100.00
54172;BME280;40076;52.354;4.970;2023-03-08T08:13:04;99617.97;;;1.94;100.00
54172;BME280;40076;52.354;4.970;2023-03-08T08:15:29;99616.09;;;1.94;100.00
54172;BME280;40076;52.354;4.970;2023-03-08T08:17:55;99613.13;;;1.96;100.00
54172;BME280;40076;52.354;4.970;2023-03-08T08:20:21;99608.09;;;1.94;100.00
54172;BME280;40076;52.354;4.970;2023-03-08T08:22:46;99616.88;;;1.95;100.00
54172;BME280;40076;52.354;4.970;2023-03-08T08:25:11;99613.94;;;1.97;100.00
54172;BME280;40076;52.354;4.970;2023-03-08T08:27:37;99607.81;;;1.96;100.00
54172;BME280;40076;52.354;4.970;2023-03-08T08:30:04;99609.69;;;1.96;100.00
54172;BME280;40076;52.354;4.970;2023-03-08T08:32:29;99614.72;;;1.97;100.00
54172;BME280;40076;52.354;4.970;2023-03-08T08:34:54;99607.53;;;1.98;100.00
54172;BME280;40076;52.354;4.970;2023-03-08T08:37:20;99611.47;;;2.00;100.00
54172;BME280;40076;52.354;4.970;2023-03-08T08:39:45;99602.91;;;2.03;100.00
54172;BME280;40076;52.354;4.970;2023-03-08T08:42:11;99603.41;;;2.05;100.00
54172;BME280;40076;52.354;4.970;2023-03-08T08:44:36;99606.53;;;2.07;100.00
54172;BME280;40076;52.354;4.970;2023-03-08T08:47:01;99603.31;;;2.10;100.00
54172;BME280;40076;52.354;4.970;2023-03-08T08:49:27;99604.09;;;2.11;100.00
54172;BME280;40076;52.354;4.970;2023-03-08T08:51:52;99605.06;;;2.15;100.00
54172;BME280;40076;52.354;4.970;2023-03-08T08:54:18;99591.97;;;2.18;100.00
54172;BME280;40076;52.354;4.970;2023-03-08T08:56:43;99596.41;;;2.23;100.00
54172;BME280;40076;52.354;4.970;2023-03-08T08:59:10;99601.16;;;2.26;100.00
54172;BME280;40076;52.354;4.970;2023-03-08T09:01:36;99605.13;;;2.28;100.00
54172;BME280;40076;52.354;4.970;2023-03-08T09:04:07;99592.28;;;2.30;100.00
54172;BME280;40076;52.354;4.970;2023-03-08T09:06:33;99581.84;;;2.34;100.00
54172;BME280;40076;52.354;4.970;2023-03-08T09:08:58;99580.44;;;2.37;100.00
54172;BME280;40076;52.354;4.970;2023-03-08T09:11:25;99584.41;;;2.39;100.00
54172;BME280;40076;52.354;4.970;2023-03-08T09:13:50;99584.63;;;2.43;100.00
54172;BME280;40076;52.354;4.970;2023-03-08T09:16:30;99576.00;;;2.46;100.00
54172;BME280;40076;52.354;4.970;2023-03-08T09:18:57;99563.19;;;2.48;100.00
54172;BME280;40076;52.354;4.970;2023-03-08T09:21:25;99563.69;;;2.50;100.00
54172;BME280;40076;52.354;4.970;2023-03-08T09:23:50;99562.28;;;2.52;100.00
54172;BME280;40076;52.354;4.970;2023-03-08T09:26:16;99561.69;;;2.55;100.00
54172;BME280;40076;52.354;4.970;2023-03-08T09:28:41;99559.25;;;2.59;100.00
54172;BME280;40076;52.354;4.970;2023-03-08T09:31:09;99558.44;;;2.58;100.00
54172;BME280;40076;52.354;4.970;2023-03-08T09:33:50;99562.88;;;2.63;100.00
54172;BME280;40076;52.354;4.970;2023-03-08T09:36:19;99557.25;;;2.64;100.00
54172;BME280;40076;52.354;4.970;2023-03-08T09:38:48;99558.56;;;2.67;100.00
54172;BME280;40076;52.354;4.970;2023-03-08T09:46:41;99563.78;;;2.72;100.00
54172;BME280;40076;52.354;4.970;2023-03-08T09:49:13;99561.13;;;2.72;100.00
54172;BME280;40076;52.354;4.970;2023-03-08T09:51:44;99560.03;;;2.73;100.00
54172;BME280;40076;52.354;4.970;2023-03-08T09:54:14;99556.56;;;2.72;100.00
54172;BME280;40076;52.354;4.970;2023-03-08T09:56:49;99549.81;;;2.75;100.00
54172;BME280;40076;52.354;4.970;2023-03-08T09:59:21;99547.94;;;2.76;100.00
54172;BME280;40076;52.354;4.970;2023-03-08T10:02:04;99553.28;;;2.76;100.00
54172;BME280;40076;52.354;4.970;2023-03-08T10:05:01;99551.91;;;2.78;100.00
54172;BME280;40076;52.354;4.970;2023-03-08T10:15:30;99544.41;;;2.80;100.00
54172;BME280;40076;52.354;4.970;2023-03-08T10:18:21;99541.13;;;2.83;100.00
54172;BME280;40076;52.354;4.970;2023-03-08T10:20:52;99542.13;;;2.87;100.00
54172;BME280;40076;52.354;4.970;2023-03-08T10:23:19;99533.84;;;2.89;100.00
54172;BME280;40076;52.354;4.970;2023-03-08T10:25:46;99523.03;;;2.94;100.00
54172;BME280;40076;52.354;4.970;2023-03-08T10:28:21;99523.03;;;2.94;100.00
54172;BME280;40076;52.354;4.970;2023-03-08T10:33:35;99516.78;;;2.98;100.00
54172;BME280;40076;52.354;4.970;2023-03-08T10:36:23;99510.38;;;2.99;100.00
54172;BME280;40076;52.354;4.970;2023-03-08T10:39:14;99496.22;;;2.99;100.00
54172;BME280;40076;52.354;4.970;2023-03-08T10:41:46;99494.06;;;3.01;100.00
54172;BME280;40076;52.354;4.970;2023-03-08T10:44:34;99499.09;;;3.02;100.00
54172;BME280;40076;52.354;4.970;2023-03-08T10:47:18;99492.69;;;3.03;100.00
54172;BME280;40076;52.354;4.970;2023-03-08T10:49:43;99483.09;;;3.02;100.00
54172;BME280;40076;52.354;4.970;2023-03-08T10:52:21;99481.81;;;3.00;100.00
54172;BME280;40076;52.354;4.970;2023-03-08T10:55:20;99480.84;;;2.96;100.00
54172;BME280;40076;52.354;4.970;2023-03-08T10:57:55;99480.34;;;2.94;100.00
54172;BME280;40076;52.354;4.970;2023-03-08T11:00:27;99480.84;;;2.96;100.00
54172;BME280;40076;52.354;4.970;2023-03-08T11:03:01;99484.78;;;2.98;100.00
54172;BME280;40076;52.354;4.970;2023-03-08T11:05:27;99501.41;;;2.95;100.00
54172;BME280;40076;52.354;4.970;2023-03-08T11:07:55;99509.41;;;2.95;100.00
54172;BME280;40076;52.354;4.970;2023-03-08T11:13:50;99525.03;;;2.88;100.00
54172;BME280;40076;52.354;4.970;2023-03-08T11:22:44;99543.19;;;3.00;100.00
54172;BME280;40076;52.354;4.970;2023-03-08T11:25:47;99552.47;;;3.02;100.00
54172;BME280;40076;52.354;4.970;2023-03-08T11:36:06;99499.19;;;3.11;100.00
54172;BME280;40076;52.354;4.970;2023-03-08T11:38:36;99480.97;;;3.13;100.00
54172;BME280;40076;52.354;4.970;2023-03-08T11:58:27;99463.50;;;3.29;100.00
54172;BME280;40076;52.354;4.970;2023-03-08T12:01:02;99464.28;;;3.30;100.00
54172;BME280;40076;52.354;4.970;2023-03-08T12:03:36;99473.28;;;3.34;100.00
54172;BME280;40076;52.354;4.970;2023-03-08T12:06:11;99467.81;;;3.39;100.00
54172;BME280;40076;52.354;4.970;2023-03-08T12:08:49;99466.44;;;3.41;100.00
54172;BME280;40076;52.354;4.970;2023-03-08T12:11:21;99459.69;;;3.44;100.00
54172;BME280;40076;52.354;4.970;2023-03-08T12:14:03;99458.00;;;3.48;100.00
54172;BME280;40076;52.354;4.970;2023-03-08T12:16:47;99460.22;;;3.55;100.00
54172;BME280;40076;52.354;4.970;2023-03-08T12:22:29;99448.44;;;3.56;100.00
54172;BME280;40076;52.354;4.970;2023-03-08T12:33:15;99444.75;;;3.65;100.00
54172;BME280;40076;52.354;4.970;2023-03-08T12:35:58;99440.34;;;3.69;100.00
54172;BME280;40076;52.354;4.970;2023-03-08T12:38:38;99446.19;;;3.71;100.00
54172;BME280;40076;52.354;4.970;2023-03-08T12:41:24;99444.31;;;3.72;100.00
54172;BME280;40076;52.354;4.970;2023-03-08T12:44:21;99449.50;;;3.77;100.00
54172;BME280;40076;52.354;4.970;2023-03-08T12:46:53;99453.75;;;3.78;100.00
54172;BME280;40076;52.354;4.970;2023-03-08T12:49:26;99449.69;;;3.80;100.00
54172;BME280;40076;52.354;4.970;2023-03-08T12:52:00;99432.25;;;3.83;100.00
54172;BME280;40076;52.354;4.970;2023-03-08T12:54:30;99442.63;;;3.84;100.00
54172;BME280;40076;52.354;4.970;2023-03-08T12:56:56;99449.56;;;3.85;100.00
54172;BME280;40076;52.354;4.970;2023-03-08T12:59:33;99459.94;;;3.87;100.00
54172;BME280;40076;52.354;4.970;2023-03-08T13:02:20;99455.09;;;3.89;100.00
54172;BME280;40076;52.354;4.970;2023-03-08T13:04:47;99462.47;;;3.92;100.00
54172;BME280;40076;52.354;4.970;2023-03-08T13:07:32;99457.41;;;3.91;100.00
54172;BME280;40076;52.354;4.970;2023-03-08T13:10:24;99459.66;;;3.97;100.00
54172;BME280;40076;52.354;4.970;2023-03-08T13:15:35;99468.47;;;3.98;100.00
54172;BME280;40076;52.354;4.970;2023-03-08T13:28:40;99461.56;;;4.05;100.00
54172;BME280;40076;52.354;4.970;2023-03-08T13:31:15;99453.25;;;4.07;100.00
54172;BME280;40076;52.354;4.970;2023-03-08T13:33:44;99454.22;;;4.11;100.00
54172;BME280;40076;52.354;4.970;2023-03-08T13:38:42;99432.19;;;4.14;100.00
54172;BME280;40076;52.354;4.970;2023-03-08T13:41:07;99430.31;;;4.14;100.00
54172;BME280;40076;52.354;4.970;2023-03-08T13:43:34;99434.09;;;4.13;100.00
54172;BME280;40076;52.354;4.970;2023-03-08T13:46:02;99436.47;;;4.15;100.00
54172;BME280;40076;52.354;4.970;2023-03-08T13:48:31;99433.47;;;4.16;100.00
54172;BME280;40076;52.354;4.970;2023-03-08T13:50:57;99425.13;;;4.09;100.00
54172;BME280;40076;52.354;4.970;2023-03-08T13:53:26;99417.25;;;4.13;100.00
54172;BME280;40076;52.354;4.970;2023-03-08T13:55:55;99424.38;;;4.17;100.00
54172;BME280;40076;52.354;4.970;2023-03-08T14:03:31;99421.69;;;4.17;100.00
54172;BME280;40076;52.354;4.970;2023-03-08T14:05:59;99410.69;;;4.19;100.00
54172;BME280;40076;52.354;4.970;2023-03-08T14:08:25;99418.06;;;4.22;100.00
54172;BME280;40076;52.354;4.970;2023-03-08T14:10:56;99416.03;;;4.19;100.00
54172;BME280;40076;52.354;4.970;2023-03-08T14:13:32;99419.97;;;4.21;100.00
54172;BME280;40076;52.354;4.970;2023-03-08T14:16:01;99426.88;;;4.22;100.00
54172;BME280;40076;52.354;4.970;2023-03-08T14:18:35;99422.81;;;4.25;100.00
54172;BME280;40076;52.354;4.970;2023-03-08T14:21:24;99423.59;;;4.25;100.00
54172;BME280;40076;52.354;4.970;2023-03-08T14:23:57;99426.28;;;4.25;100.00
54172;BME280;40076;52.354;4.970;2023-03-08T14:26:29;99435.38;;;4.24;100.00
54172;BME280;40076;52.354;4.970;2023-03-08T14:34:34;99423.41;;;4.22;100.00
54172;BME280;40076;52.354;4.970;2023-03-08T14:37:06;99410.34;;;4.20;100.00